Time;durP1;ratioP1;P1;durP2;ratioP2;P2;SDS_P1;SDS_P2;PMS_P1;PMS_P2;Temp;Humidity;BMP_temperature;BMP_pressure;BME280_temperature;BME280_humidity;BME280_pressure;Samples;Min_cycle;Max_cycle;Signal;HPM_P1;HPM_P2
2023/06/26 00:01:24;;;;;;;1.80;0.82;;;23.40;99.90;;;;;;5052763;28;20390;-74
2023/06/26 00:03:50;;;;;;;3.13;0.73;;;23.20;99.90;;;;;;5054348;28;20028;-75
2023/06/26 00:06:15;;;;;;;7.65;2.17;;;23.30;99.90;;;;;;5053899;28;20028;-76
2023/06/26 00:08:42;;;;;;;3.75;1.00;;;22.90;99.90;;;;;;5054336;28;20025;-75
2023/06/26 00:11:08;;;;;;;0.55;0.55;;;22.80;99.90;;;;;;5053743;28;20500;-75
2023/06/26 00:13:34;;;;;;;1.45;1.08;;;23.10;99.90;;;;;;5036040;28;20037;-75
2023/06/26 00:16:03;;;;;;;0.32;0.32;;;23.20;99.90;;;;;;5053540;28;20029;-75
2023/06/26 00:18:29;;;;;;;2.20;0.73;;;23.30;99.60;;;;;;5053875;28;20041;-75
2023/06/26 00:20:54;;;;;;;1.15;0.90;;;23.00;99.90;;;;;;5053971;28;20028;-75
2023/06/26 00:23:20;;;;;;;0.00;0.00;;;22.90;99.90;;;;;;5052336;28;20547;-75
2023/06/26 00:25:46;;;;;;;0.05;0.05;;;23.00;99.90;;;;;;5054027;28;20028;-75
2023/06/26 00:28:12;;;;;;;1.00;0.85;;;23.10;99.90;;;;;;5053584;28;20021;-75
2023/06/26 00:30:38;;;;;;;0.32;0.32;;;22.70;99.90;;;;;;5053344;28;20033;-76
2023/06/26 00:33:03;;;;;;;0.10;0.10;;;22.70;99.90;;;;;;5053628;28;20013;-75
2023/06/26 00:35:31;;;;;;;0.40;0.35;;;23.00;99.90;;;;;;5052238;28;20471;-75
2023/06/26 00:37:57;;;;;;;1.35;0.30;;;23.10;99.90;;;;;;5053283;28;20060;-75
2023/06/26 00:40:22;;;;;;;0.50;0.50;;;22.80;99.90;;;;;;5053411;28;20104;-75
2023/06/26 00:42:49;;;;;;;1.25;1.15;;;22.80;99.90;;;;;;5053535;28;20442;-75
2023/06/26 00:45:15;;;;;;;0.40;0.40;;;22.60;99.90;;;;;;5051989;28;20041;-76
2023/06/26 00:47:41;;;;;;;1.15;1.02;;;22.60;99.90;;;;;;5052914;28;20147;-75
2023/06/26 00:50:07;;;;;;;0.50;0.38;;;22.70;99.90;;;;;;5052202;28;20035;-75
2023/06/26 00:52:33;;;;;;;4.10;1.38;;;22.70;99.90;;;;;;5051812;28;20025;-75
2023/06/26 00:54:59;;;;;;;0.45;0.35;;;22.50;99.90;;;;;;5053250;28;20035;-75
2023/06/26 00:57:26;;;;;;;1.00;0.70;;;22.50;99.90;;;;;;5053000;28;20033;-75
2023/06/26 00:59:53;;;;;;;2.55;1.00;;;22.40;99.90;;;;;;5051293;28;20033;-75
2023/06/26 01:02:21;;;;;;;4.43;1.35;;;22.50;99.90;;;;;;5053197;28;20537;-74
2023/06/26 01:04:48;;;;;;;0.30;0.30;;;22.30;99.90;;;;;;5053038;28;20104;-75
2023/06/26 01:07:16;;;;;;;0.82;0.82;;;22.20;99.90;;;;;;5052889;28;20107;-75
2023/06/26 01:09:42;;;;;;;4.57;1.17;;;21.90;99.90;;;;;;5051563;28;20039;-75
2023/06/26 01:12:08;;;;;;;0.68;0.57;;;21.90;99.90;;;;;;5051236;28;20029;-75
2023/06/26 01:14:36;;;;;;;2.88;1.20;;;22.00;99.90;;;;;;5051333;28;20048;-75
2023/06/26 01:17:02;;;;;;;0.15;0.15;;;21.90;99.90;;;;;;5051251;28;20120;-75
2023/06/26 01:19:31;;;;;;;13.43;0.75;;;21.90;99.90;;;;;;5052944;28;20398;-75
2023/06/26 01:22:15;;;;;;;9.98;1.08;;;21.90;99.90;;;;;;5052743;28;20525;-75
2023/06/26 01:25:03;;;;;;;2.53;1.15;;;21.80;99.90;;;;;;5052810;28;20033;-76
2023/06/26 01:27:32;;;;;;;4.57;1.67;;;21.80;99.90;;;;;;5039929;28;20378;-75
2023/06/26 01:30:02;;;;;;;0.73;0.35;;;21.70;99.90;;;;;;5051245;28;20028;-75
2023/06/26 01:32:29;;;;;;;0.38;0.32;;;21.70;99.90;;;;;;5052713;28;20021;-74
2023/06/26 01:34:55;;;;;;;30.42;1.50;;;21.50;99.90;;;;;;5052798;28;20422;-75
2023/06/26 01:37:21;;;;;;;0.60;0.52;;;21.50;99.90;;;;;;5052162;28;20024;-75
2023/06/26 01:39:46;;;;;;;2.40;0.75;;;21.80;99.90;;;;;;5052712;28;20025;-75
2023/06/26 01:42:12;;;;;;;0.32;0.32;;;22.00;99.90;;;;;;5051045;28;20124;-75
2023/06/26 01:44:44;;;;;;;2.38;2.17;;;22.00;99.90;;;;;;5052218;28;20084;-74
2023/06/26 01:47:17;;;;;;;1.27;0.80;;;22.20;99.90;;;;;;5051210;28;20036;-76
2023/06/26 01:49:55;;;;;;;3.50;0.80;;;22.20;99.90;;;;;;5052450;28;20036;-75
2023/06/26 01:52:30;;;;;;;6.13;1.75;;;21.70;99.90;;;;;;5051274;28;20025;-75
2023/06/26 01:55:29;;;;;;;1.00;0.88;;;21.70;99.90;;;;;;5051102;28;20074;-75
2023/06/26 01:57:58;;;;;;;1.20;0.55;;;21.70;99.90;;;;;;5050556;28;20488;-75
2023/06/26 02:00:24;;;;;;;10.32;2.08;;;21.50;99.90;;;;;;5034571;28;20103;-76
2023/06/26 02:02:50;;;;;;;13.38;1.50;;;21.40;99.90;;;;;;5052348;28;20044;-75
2023/06/26 02:05:16;;;;;;;0.20;0.20;;;21.60;99.90;;;;;;5051071;28;20025;-75
2023/06/26 02:07:43;;;;;;;1.25;1.15;;;21.80;99.90;;;;;;5051099;28;20049;-74
2023/06/26 02:10:09;;;;;;;1.20;1.02;;;21.70;99.90;;;;;;5050784;28;20500;-74
2023/06/26 02:12:36;;;;;;;0.17;0.17;;;21.60;99.90;;;;;;5052104;28;20053;-75
2023/06/26 02:15:02;;;;;;;0.30;0.30;;;21.80;99.90;;;;;;5051968;28;20037;-74
2023/06/26 02:17:28;;;;;;;1.85;1.10;;;21.60;99.90;;;;;;5051000;28;20021;-75
2023/06/26 02:19:54;;;;;;;1.20;1.00;;;21.70;99.90;;;;;;5050673;28;20029;-75
2023/06/26 02:22:20;;;;;;;0.60;0.57;;;21.70;99.90;;;;;;5052252;28;20079;-75
2023/06/26 02:24:47;;;;;;;0.85;0.80;;;21.70;99.90;;;;;;5055992;28;20056;-75
2023/06/26 02:27:13;;;;;;;0.35;0.35;;;21.40;99.90;;;;;;5054378;28;20035;-74
2023/06/26 02:29:40;;;;;;;2.63;1.00;;;21.20;99.90;;;;;;5054589;28;20458;-74
2023/06/26 02:32:08;;;;;;;1.48;1.02;;;21.10;99.90;;;;;;5062474;28;20060;-74
2023/06/26 02:34:34;;;;;;;1.33;1.08;;;21.30;99.90;;;;;;5074357;28;20449;-73
2023/06/26 02:37:01;;;;;;;0.00;0.00;;;21.20;99.90;;;;;;5075774;28;20066;-76
2023/06/26 02:39:27;;;;;;;6.20;1.70;;;21.30;99.90;;;;;;5074107;28;20119;-75
2023/06/26 02:41:53;;;;;;;0.57;0.57;;;21.30;99.90;;;;;;5074129;28;20017;-74
2023/06/26 02:44:21;;;;;;;0.77;0.77;;;21.00;99.90;;;;;;5074433;28;20488;-76
2023/06/26 02:46:47;;;;;;;0.03;0.03;;;20.90;99.90;;;;;;5075962;28;20037;-75
2023/06/26 02:49:14;;;;;;;2.58;1.00;;;21.00;99.90;;;;;;5074505;28;20045;-75
2023/06/26 02:51:40;;;;;;;1.05;0.47;;;20.60;99.90;;;;;;5075724;28;20534;-76
2023/06/26 02:54:13;;;;;;;0.50;0.50;;;20.60;99.90;;;;;;5074186;28;20116;-75
2023/06/26 02:56:40;;;;;;;5.80;1.25;;;20.80;99.90;;;;;;5073708;28;20512;-77
2023/06/26 02:59:06;;;;;;;0.57;0.57;;;20.60;99.90;;;;;;5073679;28;20048;-76
2023/06/26 03:01:33;;;;;;;9.27;2.00;;;20.50;99.90;;;;;;5057495;28;20032;-75
2023/06/26 03:04:00;;;;;;;0.55;0.55;;;20.30;99.90;;;;;;5074023;28;20392;-76
2023/06/26 03:06:29;;;;;;;0.20;0.20;;;20.10;99.90;;;;;;5073862;28;20161;-76
2023/06/26 03:08:55;;;;;;;4.32;2.60;;;20.10;99.90;;;;;;5073919;28;20024;-75
2023/06/26 03:11:21;;;;;;;15.20;2.08;;;20.30;99.90;;;;;;5073185;28;20093;-75
2023/06/26 03:13:47;;;;;;;4.65;2.08;;;20.30;99.90;;;;;;5074014;28;20532;-76
2023/06/26 03:16:13;;;;;;;1.23;1.13;;;20.10;99.90;;;;;;5073776;28;20362;-75
2023/06/26 03:18:39;;;;;;;0.68;0.60;;;20.10;99.90;;;;;;5073749;28;20033;-75
2023/06/26 03:21:05;;;;;;;2.30;1.23;;;20.20;99.90;;;;;;5073603;28;20484;-76
2023/06/26 03:23:31;;;;;;;2.92;1.10;;;20.00;99.90;;;;;;5074951;28;20475;-76
2023/06/26 03:25:57;;;;;;;0.20;0.20;;;19.90;99.90;;;;;;5073146;28;20123;-76
2023/06/26 03:28:32;;;;;;;6.10;1.88;;;19.70;99.90;;;;;;5073901;28;20025;-75
2023/06/26 03:30:57;;;;;;;1.98;0.47;;;19.90;99.90;;;;;;5073493;28;20036;-76
2023/06/26 03:33:26;;;;;;;11.00;1.88;;;19.70;99.90;;;;;;5073281;28;20020;-75
2023/06/26 03:35:53;;;;;;;1.45;0.85;;;19.70;99.90;;;;;;5072794;28;20048;-75
2023/06/26 03:38:20;;;;;;;0.73;0.68;;;19.70;99.90;;;;;;5072855;28;20087;-76
2023/06/26 03:40:46;;;;;;;16.38;4.43;;;19.70;99.90;;;;;;5072534;28;20607;-76
2023/06/26 03:43:12;;;;;;;0.30;0.30;;;19.60;99.90;;;;;;5073060;28;20041;-75
2023/06/26 03:46:13;;;;;;;3.08;1.63;;;19.70;99.90;;;;;;5066280;28;20385;-76
2023/06/26 03:48:39;;;;;;;10.90;2.55;;;19.70;99.90;;;;;;5073448;28;20484;-76
2023/06/26 03:51:07;;;;;;;3.42;0.88;;;19.50;99.90;;;;;;5072979;28;20028;-76
2023/06/26 03:53:33;;;;;;;0.95;0.75;;;19.40;99.90;;;;;;5074286;28;20032;-76
2023/06/26 03:55:59;;;;;;;0.10;0.10;;;19.40;99.90;;;;;;5073005;28;20363;-75
2023/06/26 03:58:25;;;;;;;3.03;1.23;;;19.50;99.90;;;;;;5074286;28;20082;-76
2023/06/26 04:00:51;;;;;;;2.67;1.92;;;19.50;99.90;;;;;;5072944;28;20413;-75
2023/06/26 04:03:17;;;;;;;0.70;0.65;;;19.30;99.90;;;;;;5072589;28;20528;-76
2023/06/26 04:05:43;;;;;;;0.70;0.70;;;19.30;99.90;;;;;;5073931;28;20020;-75
2023/06/26 04:08:09;;;;;;;0.93;0.93;;;19.40;99.90;;;;;;5073690;28;20469;-76
2023/06/26 04:10:36;;;;;;;6.95;2.00;;;19.30;99.90;;;;;;5072617;28;20150;-76
2023/06/26 04:13:02;;;;;;;0.03;0.03;;;19.10;99.90;;;;;;5074001;28;20099;-76
2023/06/26 04:15:28;;;;;;;0.43;0.40;;;19.20;99.90;;;;;;5059979;28;20024;-76
2023/06/26 04:17:53;;;;;;;12.77;0.77;;;19.10;99.90;;;;;;5073754;28;20020;-76
2023/06/26 04:20:19;;;;;;;4.38;0.55;;;19.10;99.90;;;;;;5073722;28;20029;-76
2023/06/26 04:22:45;;;;;;;13.68;2.65;;;18.90;99.90;;;;;;5073562;28;20083;-76
2023/06/26 04:25:13;;;;;;;6.35;1.67;;;18.90;99.90;;;;;;5073655;28;20056;-75
2023/06/26 04:27:39;;;;;;;0.65;0.52;;;18.80;99.90;;;;;;5072289;28;20393;-75
2023/06/26 04:30:06;;;;;;;0.82;0.75;;;18.70;99.90;;;;;;5073513;28;20027;-77
2023/06/26 04:32:32;;;;;;;10.60;2.55;;;18.90;99.90;;;;;;5072217;28;20123;-75
2023/06/26 04:34:57;;;;;;;0.20;0.20;;;18.80;99.90;;;;;;5073653;28;20104;-76
2023/06/26 04:37:24;;;;;;;9.63;2.45;;;18.70;99.90;;;;;;5072872;28;20059;-76
2023/06/26 04:39:50;;;;;;;6.13;0.98;;;18.90;99.90;;;;;;5073413;28;20392;-76
2023/06/26 04:42:16;;;;;;;2.15;1.42;;;18.90;99.90;;;;;;5073212;28;20024;-76
2023/06/26 04:44:42;;;;;;;5.13;1.05;;;18.90;99.90;;;;;;5073359;28;20388;-76
2023/06/26 04:47:08;;;;;;;6.70;0.88;;;19.00;99.90;;;;;;5072281;28;20074;-75
2023/06/26 04:49:34;;;;;;;2.17;1.33;;;19.10;99.90;;;;;;5072124;28;20020;-76
2023/06/26 04:52:00;;;;;;;3.38;1.90;;;19.00;99.90;;;;;;5072947;28;20807;-76
2023/06/26 04:54:27;;;;;;;0.80;0.63;;;18.70;99.90;;;;;;5073081;28;20032;-75
2023/06/26 04:56:53;;;;;;;3.97;1.67;;;18.80;99.90;;;;;;5073116;28;20024;-76
2023/06/26 04:59:19;;;;;;;4.15;3.22;;;18.90;99.90;;;;;;5071696;28;20041;-75
2023/06/26 05:01:47;;;;;;;4.38;1.48;;;19.00;99.90;;;;;;5072765;28;20024;-78
2023/06/26 05:04:15;;;;;;;11.50;1.08;;;19.00;99.90;;;;;;5073122;28;20032;-76
2023/06/26 05:06:40;;;;;;;0.80;0.60;;;19.00;99.90;;;;;;5072666;28;20016;-76
2023/06/26 05:09:06;;;;;;;7.88;1.27;;;19.20;99.90;;;;;;5063980;28;20035;-76
2023/06/26 05:11:32;;;;;;;4.95;1.25;;;19.30;99.90;;;;;;5072725;28;20035;-75
2023/06/26 05:13:57;;;;;;;3.00;1.20;;;19.30;99.90;;;;;;5072714;28;20043;-76
2023/06/26 05:16:23;;;;;;;4.22;3.20;;;19.30;99.90;;;;;;5072896;28;20033;-76
2023/06/26 05:18:49;;;;;;;2.95;0.45;;;19.20;99.90;;;;;;5072589;28;20090;-75
2023/06/26 05:21:16;;;;;;;24.17;1.92;;;19.20;99.90;;;;;;5072594;28;20039;-76
2023/06/26 05:23:44;;;;;;;0.98;0.73;;;19.20;99.90;;;;;;5072549;28;20012;-75
2023/06/26 05:26:10;;;;;;;1.45;0.45;;;19.10;99.90;;;;;;5067492;28;20504;-76
2023/06/26 05:28:37;;;;;;;0.20;0.20;;;19.30;99.90;;;;;;5072410;28;20432;-75
2023/06/26 05:31:04;;;;;;;5.82;1.75;;;19.30;99.90;;;;;;5072774;28;20028;-76
2023/06/26 05:33:33;;;;;;;0.22;0.22;;;19.30;99.90;;;;;;5072473;28;20036;-75
2023/06/26 05:35:59;;;;;;;7.55;2.05;;;19.40;99.90;;;;;;5072574;28;20107;-75
2023/06/26 05:38:26;;;;;;;0.45;0.45;;;19.60;99.90;;;;;;5072491;28;20047;-75
2023/06/26 05:40:52;;;;;;;0.52;0.52;;;19.40;99.90;;;;;;5072192;28;20082;-75
2023/06/26 05:43:20;;;;;;;2.55;0.50;;;19.30;99.90;;;;;;5072369;28;20040;-76
2023/06/26 05:45:48;;;;;;;0.10;0.10;;;19.30;99.90;;;;;;5071441;28;20477;-75
2023/06/26 05:48:14;;;;;;;5.65;0.98;;;19.50;99.90;;;;;;5038956;28;20029;-75
2023/06/26 05:50:41;;;;;;;0.10;0.10;;;19.60;99.90;;;;;;5051278;28;20029;-75
2023/06/26 05:53:08;;;;;;;0.00;0.00;;;19.50;99.90;;;;;;5051680;28;20037;-76
2023/06/26 05:55:34;;;;;;;2.55;1.35;;;19.40;99.90;;;;;;5033569;28;20508;-75
2023/06/26 05:58:02;;;;;;;0.65;0.28;;;19.80;99.90;;;;;;5053826;28;20017;-74
2023/06/26 06:00:28;;;;;;;6.47;0.98;;;19.90;99.90;;;;;;5055730;28;20051;-76
2023/06/26 06:02:54;;;;;;;2.05;0.47;;;20.00;99.90;;;;;;5055889;28;20036;-77
2023/06/26 06:05:23;;;;;;;0.60;0.60;;;20.20;99.90;;;;;;5055288;28;20025;-75
2023/06/26 06:07:50;;;;;;;0.73;0.73;;;20.20;99.90;;;;;;5056036;28;20021;-75
2023/06/26 06:10:15;;;;;;;8.52;0.82;;;20.20;99.90;;;;;;5054809;28;20025;-74
2023/06/26 06:12:41;;;;;;;0.57;0.45;;;20.00;99.90;;;;;;5055826;28;20017;-74
2023/06/26 06:15:07;;;;;;;1.65;0.70;;;20.20;99.90;;;;;;5055324;28;20037;-76
2023/06/26 06:17:33;;;;;;;6.65;3.92;;;20.10;99.90;;;;;;5055203;28;20048;-76
2023/06/26 06:19:59;;;;;;;2.88;0.80;;;20.20;99.90;;;;;;5054672;28;20083;-74
2023/06/26 06:22:25;;;;;;;1.33;1.00;;;19.80;99.90;;;;;;5055304;28;20040;-74
2023/06/26 06:24:51;;;;;;;13.90;0.65;;;20.20;99.90;;;;;;5054918;28;20104;-74
2023/06/26 06:27:17;;;;;;;0.70;0.70;;;20.00;99.90;;;;;;5037120;28;20374;-76
2023/06/26 06:29:43;;;;;;;0.10;0.10;;;19.80;99.90;;;;;;5052391;28;20032;-76
2023/06/26 06:32:08;;;;;;;0.93;0.32;;;20.00;99.90;;;;;;5055183;28;20370;-75
2023/06/26 06:34:34;;;;;;;4.22;0.52;;;20.20;99.90;;;;;;5054805;28;20020;-75
2023/06/26 06:37:00;;;;;;;2.78;0.63;;;20.20;99.90;;;;;;5054978;28;20090;-75
2023/06/26 06:39:26;;;;;;;0.28;0.28;;;20.00;99.90;;;;;;5057844;28;20060;-76
2023/06/26 06:41:51;;;;;;;2.17;1.02;;;19.80;99.90;;;;;;5064147;28;20024;-75
2023/06/26 06:44:17;;;;;;;0.20;0.20;;;19.80;99.90;;;;;;5066453;28;20029;-76
2023/06/26 06:46:43;;;;;;;1.42;1.35;;;19.80;99.90;;;;;;5066434;28;20025;-76
2023/06/26 06:49:09;;;;;;;2.45;0.70;;;20.20;99.90;;;;;;5048745;28;20100;-76
2023/06/26 06:51:35;;;;;;;0.65;0.38;;;19.90;99.90;;;;;;5053367;28;20031;-76
2023/06/26 06:54:01;;;;;;;6.32;0.57;;;20.00;99.90;;;;;;5053016;28;20103;-76
2023/06/26 06:56:27;;;;;;;1.73;0.73;;;20.10;99.90;;;;;;5054554;28;20048;-76
2023/06/26 06:58:54;;;;;;;3.25;0.60;;;20.20;99.90;;;;;;5054369;28;20044;-76
2023/06/26 07:01:20;;;;;;;0.30;0.30;;;20.20;99.90;;;;;;5053190;28;20033;-76
2023/06/26 07:03:45;;;;;;;1.45;0.73;;;20.30;99.90;;;;;;5054251;28;20021;-76
2023/06/26 07:06:11;;;;;;;2.85;1.25;;;20.30;99.90;;;;;;5054347;28;20466;-77
2023/06/26 07:08:37;;;;;;;2.95;1.02;;;20.70;99.90;;;;;;5053637;28;20071;-76
2023/06/26 07:11:03;;;;;;;1.05;0.30;;;20.60;99.90;;;;;;5052739;28;20025;-77
2023/06/26 07:13:28;;;;;;;0.52;0.30;;;20.70;99.90;;;;;;5054357;28;20078;-77
2023/06/26 07:15:54;;;;;;;1.30;1.05;;;20.70;99.90;;;;;;5054307;28;20382;-77
2023/06/26 07:18:20;;;;;;;5.47;0.43;;;20.60;99.90;;;;;;5052288;28;20029;-77
2023/06/26 07:20:45;;;;;;;0.20;0.20;;;20.60;99.90;;;;;;5052672;28;20021;-77
2023/06/26 07:23:11;;;;;;;1.10;0.63;;;20.40;99.90;;;;;;5054576;28;20037;-77
2023/06/26 07:25:37;;;;;;;0.68;0.63;;;20.80;99.90;;;;;;5057275;28;20020;-77
2023/06/26 07:28:03;;;;;;;0.05;0.05;;;21.00;99.90;;;;;;5052700;28;20155;-77
2023/06/26 07:30:29;;;;;;;0.57;0.25;;;20.60;99.90;;;;;;5054001;28;20351;-77
2023/06/26 07:32:54;;;;;;;0.55;0.45;;;20.70;99.90;;;;;;5053571;28;20139;-77
2023/06/26 07:35:20;;;;;;;0.35;0.22;;;20.50;99.90;;;;;;5053280;28;20048;-77
2023/06/26 07:37:46;;;;;;;0.30;0.25;;;20.60;99.90;;;;;;5053504;28;20024;-77
2023/06/26 07:40:12;;;;;;;0.45;0.45;;;20.60;99.90;;;;;;5059072;28;20025;-77
2023/06/26 07:42:40;;;;;;;0.65;0.52;;;20.60;99.90;;;;;;5063338;28;20025;-76
2023/06/26 07:45:10;;;;;;;1.10;0.17;;;20.70;99.90;;;;;;5069780;28;20516;-78
2023/06/26 07:47:39;;;;;;;0.40;0.32;;;20.90;99.90;;;;;;5059551;28;20385;-76
2023/06/26 07:50:06;;;;;;;0.10;0.10;;;21.10;99.90;;;;;;5044682;28;20031;-77
2023/06/26 07:52:32;;;;;;;0.15;0.05;;;21.00;99.90;;;;;;5059741;28;20167;-77
2023/06/26 07:54:58;;;;;;;0.00;0.00;;;21.00;99.90;;;;;;5067132;28;20043;-77
2023/06/26 07:57:24;;;;;;;6.65;0.43;;;21.30;99.90;;;;;;5070240;28;20473;-77
2023/06/26 07:59:50;;;;;;;0.10;0.10;;;21.80;99.90;;;;;;5071050;28;20033;-77
2023/06/26 08:02:17;;;;;;;0.13;0.13;;;21.50;99.90;;;;;;5057473;28;20079;-77
2023/06/26 08:04:44;;;;;;;1.75;0.88;;;21.60;99.90;;;;;;5061567;28;20033;-77
2023/06/26 08:07:10;;;;;;;0.10;0.10;;;21.70;99.90;;;;;;5068265;28;20102;-77
2023/06/26 08:09:36;;;;;;;2.55;0.50;;;21.30;99.90;;;;;;5069865;28;20377;-77
2023/06/26 08:12:01;;;;;;;0.65;0.55;;;21.50;99.90;;;;;;5056105;28;20079;-76
2023/06/26 08:14:27;;;;;;;0.63;0.63;;;21.60;99.90;;;;;;5058118;28;20029;-77
2023/06/26 08:16:53;;;;;;;0.17;0.10;;;21.60;99.90;;;;;;5064068;28;20029;-77
2023/06/26 08:19:19;;;;;;;0.00;0.00;;;21.60;99.90;;;;;;5068995;28;20109;-77
2023/06/26 08:21:46;;;;;;;2.83;0.30;;;21.40;99.90;;;;;;5068074;28;20465;-77
2023/06/26 08:24:13;;;;;;;5.82;0.50;;;21.20;99.90;;;;;;5056511;28;20021;-78
2023/06/26 08:26:39;;;;;;;0.50;0.50;;;21.20;99.90;;;;;;5058806;28;20025;-75
2023/06/26 08:29:07;;;;;;;0.43;0.43;;;21.20;99.90;;;;;;5066981;28;20044;-75
2023/06/26 08:31:34;;;;;;;0.30;0.30;;;21.00;99.90;;;;;;5069655;28;20071;-77
2023/06/26 08:34:01;;;;;;;0.30;0.20;;;21.40;99.90;;;;;;5068725;28;20017;-76
2023/06/26 08:36:26;;;;;;;1.88;0.40;;;21.40;99.90;;;;;;5057147;28;20032;-76
2023/06/26 08:38:52;;;;;;;0.43;0.22;;;21.40;99.90;;;;;;5061923;28;20041;-77
2023/06/26 08:41:18;;;;;;;1.83;0.85;;;21.50;99.90;;;;;;5063678;28;20020;-77
2023/06/26 08:43:44;;;;;;;0.30;0.15;;;21.70;99.90;;;;;;5065006;28;20115;-76
2023/06/26 08:46:09;;;;;;;0.20;0.20;;;22.20;99.80;;;;;;5066937;28;20104;-77
2023/06/26 08:48:37;;;;;;;2.63;0.28;;;21.80;99.90;;;;;;5052152;28;20567;-77
2023/06/26 08:51:16;;;;;;;0.43;0.43;;;21.90;99.90;;;;;;5057050;28;20033;-77
2023/06/26 08:53:57;;;;;;;1.02;0.17;;;21.80;99.90;;;;;;5057496;28;20104;-77
2023/06/26 08:56:27;;;;;;;2.47;0.63;;;22.00;99.90;;;;;;5055479;28;20670;-75
2023/06/26 08:58:54;;;;;;;6.13;0.45;;;22.20;99.90;;;;;;5049757;28;20508;-79
2023/06/26 09:01:21;;;;;;;1.23;0.40;;;21.80;99.90;;;;;;5051565;28;20486;-79
2023/06/26 09:03:46;;;;;;;10.77;0.20;;;22.00;99.90;;;;;;5052151;28;20025;-79
2023/06/26 09:06:12;;;;;;;2.58;0.50;;;22.00;99.90;;;;;;5052070;28;20028;-79
2023/06/26 09:08:38;;;;;;;0.75;0.47;;;22.40;99.90;;;;;;5051714;28;20029;-78
2023/06/26 09:11:03;;;;;;;0.20;0.20;;;22.80;99.90;;;;;;5051913;28;20039;-79
2023/06/26 09:13:30;;;;;;;2.40;0.68;;;22.90;99.90;;;;;;5051584;28;20025;-79
2023/06/26 09:15:56;;;;;;;0.55;0.55;;;22.80;99.00;;;;;;5052002;28;20370;-79
2023/06/26 09:18:22;;;;;;;0.60;0.40;;;22.20;99.90;;;;;;5051560;28;20021;-79
2023/06/26 09:20:49;;;;;;;4.60;0.38;;;22.00;99.90;;;;;;5051795;28;20035;-79
2023/06/26 09:23:16;;;;;;;0.90;0.57;;;22.50;98.00;;;;;;5050690;28;20025;-79
2023/06/26 09:25:42;;;;;;;0.00;0.00;;;22.50;97.70;;;;;;5051521;28;20450;-78
2023/06/26 09:28:08;;;;;;;0.28;0.28;;;22.50;98.40;;;;;;5051653;28;20079;-78
2023/06/26 09:30:35;;;;;;;0.70;0.40;;;22.40;99.90;;;;;;5052176;28;20055;-79
2023/06/26 09:33:15;;;;;;;15.55;1.58;;;22.50;99.90;;;;;;5051274;28;20037;-79
2023/06/26 09:35:41;;;;;;;0.80;0.38;;;22.50;99.50;;;;;;5051689;28;20359;-79
2023/06/26 09:38:07;;;;;;;0.25;0.25;;;23.10;99.70;;;;;;5050245;28;20032;-79
2023/06/26 09:40:35;;;;;;;1.13;0.20;;;22.90;97.60;;;;;;5057127;28;20017;-79
2023/06/26 09:43:09;;;;;;;0.20;0.20;;;22.80;96.40;;;;;;5062517;28;20119;-79
2023/06/26 09:45:38;;;;;;;0.13;0.13;;;23.60;95.20;;;;;;5068013;28;20036;-79
2023/06/26 09:48:04;;;;;;;1.88;0.80;;;23.40;96.10;;;;;;5053144;28;20024;-79
2023/06/26 09:50:33;;;;;;;1.55;1.08;;;22.90;96.60;;;;;;5055330;28;20025;-79
2023/06/26 09:53:09;;;;;;;0.47;0.47;;;23.10;96.90;;;;;;5059271;28;20099;-78
2023/06/26 09:55:39;;;;;;;0.73;0.65;;;23.20;95.20;;;;;;5066192;28;20040;-79
2023/06/26 09:58:06;;;;;;;4.22;0.93;;;23.10;95.20;;;;;;5064356;28;20032;-79
2023/06/26 10:00:32;;;;;;;2.28;0.85;;;23.00;94.90;;;;;;5063072;28;20116;-79
2023/06/26 10:03:01;;;;;;;0.10;0.10;;;23.30;94.70;;;;;;5038978;28;20039;-79
2023/06/26 10:05:27;;;;;;;1.85;0.10;;;23.00;94.10;;;;;;5064087;28;20021;-79
2023/06/26 10:07:54;;;;;;;1.23;0.45;;;23.10;95.10;;;;;;5064848;28;20031;-78
2023/06/26 10:10:21;;;;;;;0.10;0.10;;;23.30;95.20;;;;;;5065624;28;20087;-79
2023/06/26 10:12:51;;;;;;;0.20;0.20;;;23.40;95.60;;;;;;5052633;28;20032;-79
2023/06/26 10:15:17;;;;;;;1.35;0.47;;;23.30;94.70;;;;;;5061115;28;20029;-78
2023/06/26 10:17:46;;;;;;;1.10;0.40;;;23.70;95.00;;;;;;5064669;28;20037;-79
2023/06/26 10:20:14;;;;;;;2.58;0.35;;;24.20;93.60;;;;;;5065929;28;20381;-80
2023/06/26 10:22:45;;;;;;;12.82;1.40;;;23.50;93.70;;;;;;5054333;28;20477;-79
2023/06/26 10:25:14;;;;;;;3.30;0.70;;;22.80;94.20;;;;;;5056262;28;20458;-81
2023/06/26 10:27:47;;;;;;;4.03;0.68;;;23.30;94.80;;;;;;5062512;28;20274;-78
2023/06/26 10:30:17;;;;;;;2.38;0.60;;;23.80;94.30;;;;;;5063497;28;20106;-79
2023/06/26 10:32:44;;;;;;;0.17;0.08;;;23.30;91.90;;;;;;5070684;28;20025;-79
2023/06/26 10:35:11;;;;;;;0.00;0.00;;;23.80;93.50;;;;;;5058636;28;20043;-78
2023/06/26 10:37:43;;;;;;;0.10;0.10;;;24.10;94.30;;;;;;5061493;28;20074;-80
2023/06/26 10:40:08;;;;;;;0.30;0.30;;;24.20;93.80;;;;;;5053165;28;20431;-79
2023/06/26 10:42:36;;;;;;;0.30;0.30;;;24.30;92.40;;;;;;5060061;28;20037;-79
2023/06/26 10:45:15;;;;;;;2.75;0.40;;;24.60;91.70;;;;;;5069572;28;20123;-79
2023/06/26 10:47:45;;;;;;;3.08;0.40;;;24.80;91.30;;;;;;5060638;28;20025;-79
2023/06/26 10:50:19;;;;;;;0.32;0.30;;;24.50;91.50;;;;;;5058178;28;20432;-79
2023/06/26 10:52:45;;;;;;;0.00;0.00;;;25.00;90.90;;;;;;5069976;28;20043;-78
2023/06/26 10:55:14;;;;;;;1.85;0.77;;;25.20;91.00;;;;;;5073629;28;20544;-76
2023/06/26 10:57:46;;;;;;;7.47;2.38;;;25.50;91.00;;;;;;5073709;28;20024;-73
2023/06/26 11:00:14;;;;;;;1.65;0.47;;;25.60;91.30;;;;;;5074872;28;20051;-74
2023/06/26 11:02:53;;;;;;;11.80;1.73;;;25.40;91.40;;;;;;5075179;28;20031;-74
2023/06/26 11:05:32;;;;;;;1.65;0.28;;;24.30;92.20;;;;;;5047110;28;20040;-74
2023/06/26 11:08:08;;;;;;;1.17;0.52;;;23.70;93.40;;;;;;5075147;28;20067;-73
2023/06/26 11:10:55;;;;;;;10.95;0.95;;;23.80;93.90;;;;;;5074607;28;20789;-74
2023/06/26 11:13:21;;;;;;;0.20;0.20;;;23.40;93.60;;;;;;5074842;28;20100;-73
2023/06/26 11:15:49;;;;;;;1.95;0.88;;;23.40;94.10;;;;;;5074965;28;20040;-74
2023/06/26 11:18:16;;;;;;;1.25;0.57;;;23.80;95.30;;;;;;5074970;28;20119;-73
2023/06/26 11:20:41;;;;;;;0.10;0.10;;;24.20;94.20;;;;;;5074840;28;20365;-74
2023/06/26 11:23:11;;;;;;;4.57;0.70;;;23.90;94.00;;;;;;5074587;28;20040;-74
2023/06/26 11:25:38;;;;;;;0.40;0.40;;;23.60;94.60;;;;;;5074538;28;20030;-74
2023/06/26 11:28:04;;;;;;;0.85;0.20;;;23.50;95.80;;;;;;5074943;28;20026;-73
2023/06/26 11:30:31;;;;;;;0.28;0.28;;;24.00;94.60;;;;;;5074562;28;20477;-74
2023/06/26 11:33:07;;;;;;;0.20;0.20;;;24.40;94.10;;;;;;5074976;28;20366;-73
2023/06/26 11:35:33;;;;;;;7.60;0.80;;;24.10;93.50;;;;;;5073290;28;20028;-73
2023/06/26 11:38:03;;;;;;;0.15;0.15;;;24.00;93.10;;;;;;5073177;28;20068;-74
2023/06/26 11:40:33;;;;;;;19.77;1.40;;;24.60;93.30;;;;;;5074510;28;20068;-73
2023/06/26 11:43:00;;;;;;;0.10;0.10;;;24.80;92.30;;;;;;5074605;28;20036;-73
2023/06/26 11:45:31;;;;;;;0.20;0.15;;;23.90;92.80;;;;;;5074445;28;20372;-73
2023/06/26 11:47:57;;;;;;;0.20;0.20;;;23.40;93.30;;;;;;5074150;28;20053;-74
2023/06/26 11:50:24;;;;;;;0.47;0.30;;;23.80;94.00;;;;;;5074685;28;20115;-73
2023/06/26 11:52:57;;;;;;;0.35;0.35;;;23.90;93.00;;;;;;5074083;28;20059;-74
2023/06/26 11:55:24;;;;;;;7.10;0.35;;;24.00;94.20;;;;;;5074251;28;20074;-73
2023/06/26 11:57:52;;;;;;;0.00;0.00;;;24.70;93.10;;;;;;5056074;28;20036;-73
2023/06/26 12:00:18;;;;;;;1.48;0.85;;;24.80;92.90;;;;;;5074060;28;20088;-74
2023/06/26 12:02:46;;;;;;;2.17;0.32;;;24.90;92.80;;;;;;5074238;28;20020;-73
2023/06/26 12:05:16;;;;;;;0.32;0.32;;;24.50;92.70;;;;;;5074155;28;20036;-73
2023/06/26 12:07:45;;;;;;;0.30;0.30;;;24.20;92.00;;;;;;5072496;28;20029;-74
2023/06/26 12:10:11;;;;;;;0.00;0.00;;;24.40;91.70;;;;;;5056041;28;20104;-73
2023/06/26 12:12:38;;;;;;;0.20;0.20;;;24.50;91.60;;;;;;5073956;28;20033;-74
2023/06/26 12:15:06;;;;;;;0.10;0.10;;;24.60;91.70;;;;;;5073833;28;20382;-73
2023/06/26 12:17:32;;;;;;;0.60;0.57;;;25.20;91.40;;;;;;5073963;28;20104;-73
2023/06/26 12:19:58;;;;;;;0.00;0.00;;;24.60;90.50;;;;;;5072421;28;20135;-73
2023/06/26 12:22:24;;;;;;;0.08;0.08;;;24.90;91.40;;;;;;5073522;28;20019;-75
2023/06/26 12:24:50;;;;;;;3.92;0.63;;;25.40;91.10;;;;;;5073787;28;20040;-74
2023/06/26 12:27:19;;;;;;;1.40;0.35;;;25.50;87.90;;;;;;5072541;28;20017;-74
2023/06/26 12:29:53;;;;;;;0.00;0.00;;;25.10;87.20;;;;;;5073806;28;20032;-74
2023/06/26 12:32:19;;;;;;;0.63;0.20;;;25.60;90.20;;;;;;5073483;28;20099;-74
2023/06/26 12:34:49;;;;;;;0.00;0.00;;;26.10;88.40;;;;;;5073575;28;20067;-73
2023/06/26 12:37:15;;;;;;;3.15;0.20;;;25.20;89.30;;;;;;5073133;28;20078;-74
2023/06/26 12:39:52;;;;;;;1.35;0.28;;;25.20;88.10;;;;;;5073377;28;20037;-73
2023/06/26 12:42:26;;;;;;;0.13;0.13;;;25.30;88.80;;;;;;5073383;28;20098;-73
2023/06/26 12:44:54;;;;;;;0.30;0.28;;;25.70;90.20;;;;;;5053990;28;20028;-73
2023/06/26 12:47:28;;;;;;;0.80;0.30;;;25.40;88.60;;;;;;5065835;28;20067;-73